createdAt,value
2022-09-26T00:01:10.742Z,99544.27
2022-09-26T00:03:38.693Z,99540.83
2022-09-26T00:06:07.595Z,99540.82
2022-09-26T00:08:35.933Z,99539.98
2022-09-26T00:11:05.104Z,99534.77
2022-09-26T00:13:33.541Z,99533.83
2022-09-26T00:16:03.287Z,99531.13
2022-09-26T00:18:30.872Z,99532.33
2022-09-26T00:21:12.402Z,99527.16
2022-09-26T00:23:41.805Z,99523.58
2022-09-26T00:26:09.737Z,99519.29
2022-09-26T00:28:37.772Z,99515.35
2022-09-26T00:31:06.377Z,99512.30
2022-09-26T00:33:34.637Z,99513.63
2022-09-26T00:36:02.634Z,99507.13
2022-09-26T00:38:30.371Z,99507.54
2022-09-26T00:40:58.320Z,99508.98
2022-09-26T00:43:30.869Z,99509.09
2022-09-26T00:46:00.017Z,99508.76
2022-09-26T00:48:27.776Z,99508.45
2022-09-26T00:50:55.381Z,99504.19
2022-09-26T00:53:28.165Z,99503.70
2022-09-26T00:56:00.540Z,99504.45
2022-09-26T00:58:30.225Z,99509.73
2022-09-26T01:00:58.147Z,99508.27
2022-09-26T01:03:26.117Z,99510.32
2022-09-26T01:05:53.948Z,99510.85
2022-09-26T01:08:22.238Z,99506.59
2022-09-26T01:10:50.657Z,99506.66
2022-09-26T01:13:18.343Z,99503.29
2022-09-26T01:15:45.939Z,99499.14
2022-09-26T01:18:13.632Z,99499.89
2022-09-26T01:21:01.289Z,99497.45
2022-09-26T01:23:38.780Z,99499.04
2022-09-26T01:26:21.453Z,99496.50
2022-09-26T01:28:55.237Z,99493.33
2022-09-26T01:31:26.043Z,99489.95
2022-09-26T01:34:00.134Z,99484.23
2022-09-26T01:36:51.204Z,99488.14
2022-09-26T01:39:18.936Z,99488.35
2022-09-26T01:41:55.722Z,99486.38
2022-09-26T01:44:29.108Z,99485.43
2022-09-26T01:47:09.464Z,99487.05
2022-09-26T01:49:40.217Z,99484.13
2022-09-26T01:52:23.193Z,99481.26
2022-09-26T01:55:02.068Z,99478.77
2022-09-26T01:57:32.172Z,99477.84
2022-09-26T02:00:01.151Z,99479.66
2022-09-26T02:02:31.123Z,99476.88
2022-09-26T02:05:07.518Z,99478.27
2022-09-26T02:07:37.954Z,99478.14
2022-09-26T02:10:17.564Z,99477.35
2022-09-26T02:12:45.894Z,99481.05
2022-09-26T02:15:15.086Z,99482.77
2022-09-26T02:17:44.471Z,99476.67
2022-09-26T02:20:16.654Z,99472.92
2022-09-26T02:22:44.361Z,99475.44
2022-09-26T02:25:16.898Z,99476.02
2022-09-26T02:27:44.625Z,99481.09
2022-09-26T02:30:12.533Z,99478.77
2022-09-26T02:32:40.505Z,99477.36
2022-09-26T02:35:26.861Z,99474.67
2022-09-26T02:37:55.647Z,99471.95
2022-09-26T02:40:25.250Z,99471.42
2022-09-26T02:42:55.209Z,99468.14
2022-09-26T02:45:52.458Z,99469.23
2022-09-26T02:48:29.660Z,99470.95
2022-09-26T02:51:24.631Z,99469.65
2022-09-26T02:54:11.837Z,99470.02
2022-09-26T02:56:47.166Z,99467.88
2022-09-26T02:59:24.580Z,99468.00
2022-09-26T03:01:56.657Z,99469.24
2022-09-26T03:04:43.793Z,99465.48
2022-09-26T03:07:12.438Z,99466.13
2022-09-26T03:09:40.593Z,99464.27
2022-09-26T03:12:10.069Z,99464.90
2022-09-26T03:14:38.948Z,99458.59
2022-09-26T03:17:06.769Z,99458.38
2022-09-26T03:19:44.829Z,99454.20
2022-09-26T03:22:13.127Z,99453.38
2022-09-26T03:24:41.237Z,99450.40
2022-09-26T03:27:11.809Z,99449.02
2022-09-26T03:29:39.946Z,99446.29
2022-09-26T03:32:14.710Z,99445.02
2022-09-26T03:34:43.266Z,99443.52
2022-09-26T03:37:12.008Z,99439.66
2022-09-26T03:39:39.782Z,99436.94
2022-09-26T03:42:14.631Z,99437.10
2022-09-26T03:44:44.097Z,99434.46
2022-09-26T03:47:15.149Z,99433.46
2022-09-26T03:49:44.687Z,99438.86
2022-09-26T03:52:12.520Z,99439.09
2022-09-26T03:54:40.942Z,99437.80
2022-09-26T03:57:10.557Z,99436.09
2022-09-26T03:59:41.466Z,99432.82
2022-09-26T04:02:10.094Z,99431.34
2022-09-26T04:04:39.924Z,99431.93
2022-09-26T04:07:08.695Z,99430.65
2022-09-26T04:09:36.479Z,99431.52
2022-09-26T04:12:05.933Z,99433.93
2022-09-26T04:14:35.670Z,99431.80
2022-09-26T04:17:03.814Z,99435.68
2022-09-26T04:19:37.854Z,99428.59
2022-09-26T04:22:08.103Z,99427.98
2022-09-26T04:24:36.272Z,99428.60
2022-09-26T04:27:04.994Z,99426.08
2022-09-26T04:29:34.022Z,99422.21
2022-09-26T04:32:13.683Z,99423.84
2022-09-26T04:34:52.003Z,99424.16
2022-09-26T04:37:21.077Z,99424.97
2022-09-26T04:39:48.935Z,99428.44
2022-09-26T04:42:17.445Z,99429.73
2022-09-26T04:44:45.058Z,99425.21
2022-09-26T04:47:12.842Z,99425.45
2022-09-26T04:49:59.138Z,99420.09
2022-09-26T04:52:27.466Z,99420.80
2022-09-26T04:54:55.584Z,99421.37
2022-09-26T04:57:23.205Z,99413.34
2022-09-26T04:59:50.930Z,99411.41
2022-09-26T05:02:20.722Z,99411.25
2022-09-26T05:04:49.809Z,99410.65
2022-09-26T05:07:18.341Z,99410.93
2022-09-26T05:09:46.583Z,99410.55
2022-09-26T05:12:18.242Z,99412.70
2022-09-26T05:14:48.435Z,99411.47
2022-09-26T05:17:16.506Z,99409.40
2022-09-26T05:19:45.717Z,99407.15
2022-09-26T05:22:21.910Z,99403.88
2022-09-26T05:25:08.484Z,99401.71
2022-09-26T05:27:37.138Z,99402.11
2022-09-26T05:30:05.182Z,99399.26
2022-09-26T05:32:33.070Z,99396.57
2022-09-26T05:35:00.987Z,99394.97
2022-09-26T05:37:30.188Z,99393.59
2022-09-26T05:40:16.964Z,99398.19
2022-09-26T05:42:50.637Z,99394.40
2022-09-26T05:45:19.457Z,99390.25
2022-09-26T05:47:48.748Z,99391.92
2022-09-26T05:50:17.278Z,99393.84
2022-09-26T05:52:46.112Z,99393.92
2022-09-26T05:55:17.939Z,99395.56
2022-09-26T05:58:05.768Z,99388.00
2022-09-26T06:01:00.341Z,99392.13
2022-09-26T06:03:30.543Z,99394.38
2022-09-26T06:06:07.737Z,99392.67
2022-09-26T06:08:36.673Z,99391.27
2022-09-26T06:11:30.715Z,99386.02
2022-09-26T06:14:00.777Z,99388.90
2022-09-26T06:16:29.284Z,99384.83
2022-09-26T06:18:57.541Z,99383.77
2022-09-26T06:21:26.007Z,99383.05
2022-09-26T06:24:03.639Z,99381.06
2022-09-26T06:26:32.558Z,99380.13
2022-09-26T06:29:02.516Z,99382.00
2022-09-26T06:31:35.004Z,99382.52
2022-09-26T06:34:14.714Z,99385.02
2022-09-26T06:36:49.099Z,99385.89
2022-09-26T06:39:16.990Z,99389.00
2022-09-26T06:41:47.034Z,99387.70
2022-09-26T06:44:44.621Z,99392.32
2022-09-26T06:47:35.628Z,99400.67
2022-09-26T06:50:22.367Z,99400.48
2022-09-26T06:52:53.851Z,99400.41
2022-09-26T06:55:24.384Z,99398.49
2022-09-26T06:57:54.018Z,99404.79
2022-09-26T07:00:22.649Z,99403.60
2022-09-26T07:03:06.549Z,99403.92
2022-09-26T07:05:49.683Z,99401.25
2022-09-26T07:08:18.087Z,99398.25
2022-09-26T07:10:47.206Z,99391.56
2022-09-26T07:13:22.787Z,99394.32
2022-09-26T07:15:50.970Z,99396.34
2022-09-26T07:18:38.561Z,99396.80
2022-09-26T07:21:26.405Z,99395.76
2022-09-26T07:24:14.261Z,99398.03
2022-09-26T07:26:42.502Z,99390.98
2022-09-26T07:29:10.249Z,99392.13
2022-09-26T07:31:39.346Z,99388.77
2022-09-26T07:34:08.768Z,99388.01
2022-09-26T07:36:39.720Z,99389.10
2022-09-26T07:39:09.048Z,99388.89
2022-09-26T07:41:36.840Z,99389.51
2022-09-26T07:44:58.941Z,99392.30
2022-09-26T07:47:11.513Z,99386.73
2022-09-26T07:49:58.015Z,99385.26
2022-09-26T07:52:47.927Z,99381.13
2022-09-26T07:55:25.742Z,99378.48
2022-09-26T07:58:44.798Z,99378.63
2022-09-26T08:01:33.221Z,99382.91
2022-09-26T08:04:19.981Z,99379.02
2022-09-26T08:06:47.691Z,99381.88
2022-09-26T08:09:15.950Z,99376.88
2022-09-26T08:12:14.479Z,99377.66
2022-09-26T08:15:07.052Z,99379.70
2022-09-26T08:17:41.709Z,99376.10
2022-09-26T08:20:10.254Z,99372.73
2022-09-26T08:22:38.724Z,99366.23
2022-09-26T08:25:07.263Z,99364.93
2022-09-26T08:27:44.015Z,99366.58
2022-09-26T08:30:13.571Z,99364.75
2022-09-26T08:32:42.322Z,99364.40
2022-09-26T08:35:15.024Z,99365.13
2022-09-26T08:38:09.133Z,99366.66
2022-09-26T08:40:49.647Z,99368.98
2022-09-26T08:43:55.960Z,99372.11
2022-09-26T08:46:58.773Z,99369.55
2022-09-26T08:49:42.556Z,99370.67
2022-09-26T08:52:24.015Z,99369.88
2022-09-26T08:54:53.387Z,99368.77
2022-09-26T08:57:24.169Z,99362.92
2022-09-26T08:59:51.868Z,99359.47
2022-09-26T09:02:24.531Z,99354.61
2022-09-26T09:05:04.062Z,99346.94
2022-09-26T09:07:34.435Z,99343.32
2022-09-26T09:10:05.432Z,99337.95
2022-09-26T09:13:18.375Z,99337.61
2022-09-26T09:16:04.520Z,99331.36
2022-09-26T09:19:11.820Z,99329.02
2022-09-26T09:22:20.009Z,99330.27
2022-09-26T09:25:00.334Z,99329.44
2022-09-26T09:30:36.306Z,99331.42
2022-09-26T09:33:30.265Z,99326.44
2022-09-26T09:36:21.335Z,99327.61
2022-09-26T09:39:23.485Z,99330.00
2022-09-26T09:42:21.173Z,99323.56
2022-09-26T09:44:59.450Z,99324.44
2022-09-26T09:47:29.234Z,99325.64
2022-09-26T09:49:57.498Z,99321.86
2022-09-26T09:52:36.010Z,99325.77
2022-09-26T09:55:17.352Z,99317.92
2022-09-26T09:57:45.573Z,99313.23
2022-09-26T10:00:13.814Z,99313.06
2022-09-26T10:02:53.268Z,99314.30
2022-09-26T10:05:39.184Z,99315.23
2022-09-26T10:08:11.762Z,99316.72
2022-09-26T10:11:19.437Z,99310.60
2022-09-26T10:14:20.079Z,99311.98
2022-09-26T10:17:09.792Z,99313.02
2022-09-26T10:20:29.433Z,99307.70
2022-09-26T10:22:58.180Z,99307.70
2022-09-26T10:25:28.831Z,99307.80
2022-09-26T10:27:57.619Z,99302.20
2022-09-26T10:30:30.394Z,99298.95
2022-09-26T10:33:05.423Z,99300.73
2022-09-26T10:35:44.356Z,99299.64
2022-09-26T10:38:19.563Z,99302.70
2022-09-26T10:40:54.807Z,99296.30
2022-09-26T10:43:23.168Z,99292.30
2022-09-26T10:45:55.101Z,99287.61
2022-09-26T10:48:49.183Z,99288.23
2022-09-26T10:51:45.084Z,99279.60
2022-09-26T10:54:19.039Z,99280.91
2022-09-26T10:56:49.691Z,99273.55
2022-09-26T10:59:18.429Z,99272.77
2022-09-26T11:01:47.578Z,99272.25
2022-09-26T11:04:44.781Z,99272.78
2022-09-26T11:07:36.058Z,99267.45
2022-09-26T11:10:25.968Z,99270.69
2022-09-26T11:13:20.824Z,99269.02
2022-09-26T11:16:02.131Z,99267.14
2022-09-26T11:18:46.379Z,99264.71
2022-09-26T11:21:28.330Z,99259.99
2022-09-26T11:24:19.491Z,99255.91
2022-09-26T11:26:49.234Z,99253.67
2022-09-26T11:29:34.943Z,99251.43
2022-09-26T11:32:23.836Z,99245.83
2022-09-26T11:35:03.784Z,99241.02
2022-09-26T11:37:52.027Z,99250.13
2022-09-26T11:40:40.195Z,99249.38
2022-09-26T11:43:14.466Z,99241.34
2022-09-26T11:46:04.372Z,99242.06
2022-09-26T11:49:14.442Z,99243.61
2022-09-26T11:52:17.572Z,99235.13
2022-09-26T11:54:45.723Z,99231.60
2022-09-26T11:57:33.207Z,99232.71
2022-09-26T12:00:07.314Z,99229.13
2022-09-26T12:03:01.550Z,99227.63
2022-09-26T12:05:36.989Z,99225.17
2022-09-26T12:08:07.763Z,99225.86
2022-09-26T12:10:50.653Z,99221.06
2022-09-26T12:13:21.514Z,99218.19
2022-09-26T12:15:58.997Z,99216.21
2022-09-26T12:18:43.556Z,99210.18
2022-09-26T12:21:22.382Z,99210.45
2022-09-26T12:23:52.435Z,99210.61
2022-09-26T12:26:26.127Z,99203.30
2022-09-26T12:28:53.739Z,99200.91
2022-09-26T12:31:35.628Z,99196.32
2022-09-26T12:34:22.099Z,99197.63
2022-09-26T12:37:01.866Z,99193.68
2022-09-26T12:39:38.822Z,99192.51
2022-09-26T12:42:10.004Z,99193.53
2022-09-26T12:44:51.279Z,99191.70
2022-09-26T12:47:18.916Z,99191.41
2022-09-26T12:49:49.538Z,99187.89
2022-09-26T12:52:35.689Z,99182.19
2022-09-26T12:55:23.463Z,99178.66
2022-09-26T12:58:21.973Z,99179.27
2022-09-26T13:00:56.477Z,99174.68
2022-09-26T13:03:32.816Z,99173.73
2022-09-26T13:06:29.633Z,99171.76
2022-09-26T13:09:00.889Z,99168.48
2022-09-26T13:11:32.745Z,99164.16
2022-09-26T13:14:19.520Z,99167.72
2022-09-26T13:16:57.839Z,99163.49
2022-09-26T13:19:30.044Z,99165.52
2022-09-26T13:22:00.045Z,99167.05
2022-09-26T13:24:38.020Z,99165.29
2022-09-26T13:27:14.813Z,99159.91
2022-09-26T13:29:44.102Z,99159.08
2022-09-26T13:32:16.384Z,99155.45
2022-09-26T13:34:52.355Z,99153.33
2022-09-26T13:37:28.872Z,99143.85
2022-09-26T13:39:59.736Z,99143.78
2022-09-26T13:42:31.503Z,99142.11
2022-09-26T13:44:59.054Z,99147.75
2022-09-26T13:47:27.303Z,99148.12
2022-09-26T13:49:57.948Z,99139.02
2022-09-26T13:52:34.968Z,99139.40
2022-09-26T13:55:02.797Z,99142.95
2022-09-26T13:57:43.540Z,99139.20
2022-09-26T14:00:29.775Z,99140.17
2022-09-26T14:03:09.529Z,99140.68
2022-09-26T14:05:46.839Z,99142.27
2022-09-26T14:08:42.445Z,99141.70
2022-09-26T14:11:15.729Z,99138.91
2022-09-26T14:13:43.393Z,99137.02
2022-09-26T14:16:30.076Z,99135.45
2022-09-26T14:19:00.695Z,99134.90
2022-09-26T14:21:35.965Z,99130.02
2022-09-26T14:24:22.494Z,99132.52
2022-09-26T14:26:51.338Z,99130.29
2022-09-26T14:29:27.854Z,99129.38
2022-09-26T14:32:01.877Z,99131.05
2022-09-26T14:34:42.039Z,99129.64
2022-09-26T14:37:22.040Z,99131.69
2022-09-26T14:39:52.527Z,99134.66
2022-09-26T14:42:24.575Z,99134.56
2022-09-26T14:45:01.874Z,99137.64
2022-09-26T14:47:31.091Z,99135.01
2022-09-26T14:50:03.209Z,99136.35
2022-09-26T14:52:31.560Z,99135.55
2022-09-26T14:55:01.269Z,99132.56
2022-09-26T14:57:31.751Z,99135.91
2022-09-26T15:00:00.105Z,99141.08
2022-09-26T15:02:28.866Z,99140.02
2022-09-26T15:05:05.879Z,99145.01
2022-09-26T15:07:41.491Z,99146.73
2022-09-26T15:10:12.149Z,99143.09
2022-09-26T15:12:49.674Z,99142.05
2022-09-26T15:15:26.571Z,99144.23
2022-09-26T15:17:56.450Z,99142.04
2022-09-26T15:20:25.525Z,99147.85
2022-09-26T15:22:54.009Z,99150.89
2022-09-26T15:25:22.931Z,99151.77
2022-09-26T15:27:54.157Z,99144.98
2022-09-26T15:30:24.446Z,99142.00
2022-09-26T15:32:58.890Z,99141.99
2022-09-26T15:35:27.282Z,99141.61
2022-09-26T15:38:03.070Z,99141.55
2022-09-26T15:40:31.639Z,99143.88
2022-09-26T15:43:20.535Z,99140.75
2022-09-26T15:45:55.400Z,99134.70
2022-09-26T15:48:26.321Z,99138.40
2022-09-26T15:51:01.405Z,99139.88
2022-09-26T15:53:29.241Z,99141.43
2022-09-26T15:55:58.868Z,99144.13
2022-09-26T15:58:32.186Z,99142.10
2022-09-26T16:01:00.309Z,99143.20
2022-09-26T16:03:38.318Z,99144.13
2022-09-26T16:06:08.624Z,99145.55
2022-09-26T16:08:38.429Z,99142.48
2022-09-26T16:11:08.063Z,99140.73
2022-09-26T16:13:40.395Z,99138.73
2022-09-26T16:16:08.893Z,99144.04
2022-09-26T16:18:39.925Z,99145.06
2022-09-26T16:21:21.077Z,99150.08
2022-09-26T16:23:50.340Z,99144.65
2022-09-26T16:26:26.246Z,99143.71
2022-09-26T16:28:55.224Z,99144.52
2022-09-26T16:31:41.257Z,99146.23
2022-09-26T16:34:29.065Z,99140.30
2022-09-26T16:36:57.329Z,99136.44
2022-09-26T16:39:26.836Z,99135.05
2022-09-26T16:42:03.082Z,99136.98
2022-09-26T16:44:37.111Z,99139.65
2022-09-26T16:47:07.293Z,99137.91
2022-09-26T16:49:46.155Z,99135.96
2022-09-26T16:52:36.540Z,99137.30
2022-09-26T16:55:08.601Z,99142.42
2022-09-26T16:57:37.806Z,99142.95
2022-09-26T17:00:34.514Z,99146.36
2022-09-26T17:03:02.597Z,99146.84
2022-09-26T17:05:30.880Z,99146.69
2022-09-26T17:07:58.674Z,99147.88
2022-09-26T17:10:26.556Z,99141.76
2022-09-26T17:12:54.451Z,99140.67
2022-09-26T17:15:26.114Z,99139.48
2022-09-26T17:17:54.325Z,99140.80
2022-09-26T17:20:22.355Z,99142.77
2022-09-26T17:22:50.373Z,99145.36
2022-09-26T17:25:18.923Z,99152.56
2022-09-26T17:27:47.185Z,99154.17
2022-09-26T17:30:16.441Z,99158.26
2022-09-26T17:32:49.830Z,99160.35
2022-09-26T17:35:17.582Z,99169.09
2022-09-26T17:37:46.504Z,99186.49
2022-09-26T17:40:19.071Z,99185.97
2022-09-26T17:42:47.046Z,99185.12
2022-09-26T17:45:15.106Z,99183.70
2022-09-26T17:47:43.443Z,99181.00
2022-09-26T17:50:16.416Z,99185.41
2022-09-26T17:52:44.262Z,99184.73
2022-09-26T17:55:12.090Z,99183.77
2022-09-26T17:57:41.984Z,99181.95
2022-09-26T18:00:13.115Z,99191.17
2022-09-26T18:02:43.891Z,99190.89
2022-09-26T18:05:26.351Z,99182.20
2022-09-26T18:07:58.426Z,99177.45
2022-09-26T18:10:30.597Z,99182.20
2022-09-26T18:12:59.012Z,99184.92
2022-09-26T18:15:27.476Z,99183.32
2022-09-26T18:17:55.528Z,99182.52
2022-09-26T18:20:24.889Z,99183.48
2022-09-26T18:22:52.670Z,99183.49
2022-09-26T18:25:22.058Z,99180.74
2022-09-26T18:27:53.668Z,99180.95
2022-09-26T18:30:21.720Z,99173.27
2022-09-26T18:32:51.333Z,99170.39
2022-09-26T18:35:20.073Z,99165.88
2022-09-26T18:37:47.793Z,99168.61
2022-09-26T18:40:16.319Z,99165.56
2022-09-26T18:42:47.286Z,99169.16
2022-09-26T18:45:15.809Z,99167.65
2022-09-26T18:47:44.760Z,99161.21
2022-09-26T18:50:23.726Z,99156.80
2022-09-26T18:52:52.458Z,99151.80
2022-09-26T18:55:39.593Z,99149.19
2022-09-26T18:58:23.977Z,99146.44
2022-09-26T19:00:54.559Z,99143.15
2022-09-26T19:03:23.496Z,99137.52
2022-09-26T19:05:52.127Z,99136.69
2022-09-26T19:08:34.227Z,99140.02
2022-09-26T19:11:04.062Z,99135.27
2022-09-26T19:13:33.015Z,99136.25
2022-09-26T19:16:00.925Z,99133.52
2022-09-26T19:18:29.137Z,99137.83
2022-09-26T19:20:56.940Z,99136.02
2022-09-26T19:23:25.785Z,99134.39
2022-09-26T19:25:53.755Z,99133.04
2022-09-26T19:28:23.421Z,99137.98
2022-09-26T19:30:51.292Z,99137.80
2022-09-26T19:33:19.033Z,99141.13
2022-09-26T19:35:47.530Z,99141.16
2022-09-26T19:38:18.452Z,99140.25
2022-09-26T19:40:49.100Z,99138.36
2022-09-26T19:43:17.583Z,99139.36
2022-09-26T19:45:45.485Z,99135.01
2022-09-26T19:50:46.169Z,99134.85
2022-09-26T19:53:19.378Z,99134.96
2022-09-26T19:55:50.285Z,99129.70
2022-09-26T19:58:21.640Z,99128.63
2022-09-26T20:00:54.622Z,99133.89
2022-09-26T20:03:28.002Z,99132.58
2022-09-26T20:05:56.058Z,99131.17
2022-09-26T20:08:25.850Z,99130.33
2022-09-26T20:10:55.494Z,99132.38
2022-09-26T20:13:23.508Z,99132.45
2022-09-26T20:15:51.538Z,99133.29
2022-09-26T20:18:21.916Z,99128.71
2022-09-26T20:20:53.430Z,99126.61
2022-09-26T20:23:24.400Z,99128.70
2022-09-26T20:25:54.138Z,99128.31
2022-09-26T20:28:22.339Z,99124.59
2022-09-26T20:30:54.414Z,99125.89
2022-09-26T20:33:23.722Z,99129.04
2022-09-26T20:36:04.263Z,99126.80
2022-09-26T20:38:38.426Z,99123.55
2022-09-26T20:41:16.321Z,99124.23
2022-09-26T20:43:47.924Z,99130.07
2022-09-26T20:46:16.242Z,99121.83
2022-09-26T20:48:45.938Z,99118.84
2022-09-26T20:51:20.294Z,99116.50
2022-09-26T20:53:48.119Z,99112.73
2022-09-26T20:56:21.126Z,99112.20
2022-09-26T20:58:50.077Z,99115.09
2022-09-26T21:01:20.318Z,99114.35
2022-09-26T21:03:52.426Z,99110.99
2022-09-26T21:06:22.706Z,99106.23
2022-09-26T21:08:50.888Z,99105.67
2022-09-26T21:11:20.251Z,99103.66
2022-09-26T21:13:48.810Z,99101.11
2022-09-26T21:16:19.442Z,99095.28
2022-09-26T21:18:51.728Z,99096.16
2022-09-26T21:21:25.273Z,99097.04
2022-09-26T21:24:16.327Z,99091.45
2022-09-26T21:26:44.325Z,99091.64
2022-09-26T21:29:16.871Z,99087.56
2022-09-26T21:31:49.075Z,99083.50
2022-09-26T21:34:20.902Z,99081.97
2022-09-26T21:36:49.838Z,99074.52
2022-09-26T21:39:19.022Z,99071.65
2022-09-26T21:41:49.157Z,99074.83
2022-09-26T21:44:19.492Z,99075.77
2022-09-26T21:46:47.357Z,99072.95
2022-09-26T21:49:15.589Z,99073.02
2022-09-26T21:51:45.748Z,99073.66
2022-09-26T21:54:26.907Z,99076.60
2022-09-26T21:57:03.302Z,99075.27
2022-09-26T21:59:31.804Z,99072.98
2022-09-26T22:01:59.703Z,99065.12
2022-09-26T22:04:27.588Z,99069.69
2022-09-26T22:06:55.473Z,99069.02
2022-09-26T22:09:23.922Z,99067.94
2022-09-26T22:11:52.207Z,99066.90
2022-09-26T22:14:20.455Z,99066.38
2022-09-26T22:16:48.302Z,99066.67
2022-09-26T22:19:16.818Z,99066.23
2022-09-26T22:21:46.142Z,99063.61
2022-09-26T22:24:14.418Z,99060.02
2022-09-26T22:26:42.208Z,99058.31
2022-09-26T22:29:10.177Z,99057.21
2022-09-26T22:31:38.341Z,99054.17
2022-09-26T22:34:06.228Z,99053.45
2022-09-26T22:36:34.266Z,99047.30
2022-09-26T22:39:02.121Z,99043.10
2022-09-26T22:41:30.236Z,99039.29
2022-09-26T22:43:58.258Z,99041.76
2022-09-26T22:46:26.180Z,99043.42
2022-09-26T22:48:54.194Z,99038.20
2022-09-26T22:51:22.066Z,99036.98
2022-09-26T22:53:49.853Z,99032.83
2022-09-26T22:56:18.108Z,99032.13
2022-09-26T22:58:51.137Z,99029.23
2022-09-26T23:01:24.641Z,99030.71
2022-09-26T23:03:53.937Z,99030.77
2022-09-26T23:06:23.200Z,99031.55
2022-09-26T23:08:51.281Z,99027.45
2022-09-26T23:11:20.100Z,99027.86
2022-09-26T23:13:50.514Z,99026.45
2022-09-26T23:16:21.227Z,99026.14
2022-09-26T23:18:50.269Z,99022.86
2022-09-26T23:21:21.848Z,99018.59
2022-09-26T23:23:51.956Z,99012.45
2022-09-26T23:26:28.873Z,99014.54
2022-09-26T23:28:57.740Z,99013.74
2022-09-26T23:31:26.936Z,99014.81
2022-09-26T23:33:55.341Z,99011.63
2022-09-26T23:36:23.869Z,99010.77
2022-09-26T23:38:51.860Z,99011.64
2022-09-26T23:41:19.700Z,99013.38
2022-09-26T23:43:47.608Z,99011.20
2022-09-26T23:46:15.694Z,99013.98
2022-09-26T23:48:43.852Z,99008.46
2022-09-26T23:51:11.725Z,99010.27
2022-09-26T23:53:39.525Z,99006.17
2022-09-26T23:56:10.140Z,99005.59
2022-09-26T23:58:38.203Z,99001.46
